Time;durP1;ratioP1;P1;durP2;ratioP2;P2;SDS_P1;SDS_P2;PMS_P1;PMS_P2;Temp;Humidity;BMP_temperature;BMP_pressure;BME280_temperature;BME280_humidity;BME280_pressure;Samples;Min_cycle;Max_cycle;Signal;HPM_P1;HPM_P2
2022/10/31 00:00:29;;;;;;;17.92;6.13;;;;;;;14.94;94.47;101144.56;4967211;28;20035;-67
2022/10/31 00:02:55;;;;;;;18.58;6.32;;;;;;;15.04;94.80;101151.28;4961554;28;20043;-67
2022/10/31 00:05:20;;;;;;;13.23;5.80;;;;;;;15.10;94.29;101152.47;4961744;28;20031;-65
2022/10/31 00:07:45;;;;;;;12.50;6.13;;;;;;;14.99;94.19;101157.81;4952940;28;20043;-65
2022/10/31 00:10:11;;;;;;;16.42;6.40;;;;;;;14.99;94.49;101160.50;4952380;28;20408;-65
2022/10/31 00:12:36;;;;;;;12.43;6.18;;;;;;;14.98;94.43;101169.03;4953014;28;20117;-65
2022/10/31 00:15:02;;;;;;;13.20;5.88;;;;;;;15.11;94.31;101168.41;4964925;28;20559;-65
2022/10/31 00:17:30;;;;;;;12.20;5.50;;;;;;;15.02;94.09;101167.13;4971334;28;20038;-64
2022/10/31 00:19:56;;;;;;;10.35;5.03;;;;;;;15.03;94.49;101165.97;4970771;28;20122;-65
2022/10/31 00:22:22;;;;;;;13.95;5.93;;;;;;;15.15;94.27;101166.50;4962811;28;20038;-64
2022/10/31 00:24:47;;;;;;;11.77;5.38;;;;;;;15.30;94.09;101173.63;4961931;28;20037;-65
2022/10/31 00:27:12;;;;;;;13.02;6.03;;;;;;;15.21;94.04;101167.69;4965757;28;20114;-65
2022/10/31 00:29:38;;;;;;;12.05;5.93;;;;;;;15.20;94.78;101176.22;4967742;28;20696;-65
2022/10/31 00:32:04;;;;;;;11.32;6.07;;;;;;;15.23;95.05;101178.22;4966802;28;20034;-65
2022/10/31 00:34:29;;;;;;;11.90;5.85;;;;;;;15.25;95.26;101175.91;4963616;28;20024;-65
2022/10/31 00:36:54;;;;;;;14.65;5.00;;;;;;;15.38;94.90;101174.47;4965860;28;20046;-66
2022/10/31 00:39:20;;;;;;;10.50;5.53;;;;;;;15.45;94.91;101177.25;4964985;28;20117;-66
2022/10/31 00:41:45;;;;;;;9.35;4.82;;;;;;;15.44;95.12;101178.44;4966981;28;20376;-66
2022/10/31 00:44:11;;;;;;;14.45;6.22;;;;;;;15.47;95.79;101172.25;4965215;28;20954;-66
2022/10/31 00:46:36;;;;;;;12.77;5.28;;;;;;;15.48;95.46;101173.81;4969407;28;20039;-66
2022/10/31 00:49:02;;;;;;;8.98;5.22;;;;;;;15.52;95.35;101174.63;4970063;28;20047;-67
2022/10/31 00:51:28;;;;;;;10.73;4.90;;;;;;;15.52;95.42;101169.19;4968401;28;20502;-66
2022/10/31 00:53:53;;;;;;;12.90;5.50;;;;;;;15.54;95.49;101169.59;4968868;28;20059;-66
2022/10/31 00:56:19;;;;;;;10.13;5.00;;;;;;;15.52;95.67;101182.78;4967354;28;20037;-66
2022/10/31 00:58:44;;;;;;;13.55;5.38;;;;;;;15.48;96.02;101173.81;4969184;28;20415;-66
2022/10/31 01:01:09;;;;;;;9.73;4.85;;;;;;;15.52;95.33;101171.13;4969338;28;20054;-66
2022/10/31 01:03:35;;;;;;;14.35;4.57;;;;;;;15.40;95.49;101172.16;4972193;28;20034;-66
2022/10/31 01:06:07;;;;;;;12.85;5.35;;;;;;;15.42;96.12;101178.03;4972609;28;20130;-66
2022/10/31 01:08:34;;;;;;;11.20;4.70;;;;;;;15.32;95.73;101181.38;4970358;28;20035;-66
2022/10/31 01:11:21;;;;;;;9.32;5.22;;;;;;;15.33;95.92;101170.16;4980919;28;20514;-66
2022/10/31 01:13:49;;;;;;;13.30;5.00;;;;;;;15.30;95.47;101172.84;4969278;28;20105;-66
2022/10/31 01:16:17;;;;;;;12.25;4.80;;;;;;;15.25;95.78;101181.31;4955704;28;20035;-66
2022/10/31 01:18:44;;;;;;;9.48;5.03;;;;;;;15.16;95.66;101181.63;4959077;28;20043;-66
2022/10/31 01:21:12;;;;;;;10.90;5.05;;;;;;;15.11;96.11;101186.59;4967397;28;20539;-66
2022/10/31 01:23:37;;;;;;;13.80;5.05;;;;;;;15.08;95.77;101187.34;4974001;28;20035;-66
2022/10/31 01:26:23;;;;;;;10.35;4.35;;;;;;;15.01;95.70;101189.97;4965110;28;20038;-66
2022/10/31 01:28:52;;;;;;;9.30;4.90;;;;;;;15.07;95.69;101196.63;4966336;28;20438;-66
2022/10/31 01:31:19;;;;;;;11.88;4.88;;;;;;;15.21;95.38;101197.56;4973807;28;20041;-66
2022/10/31 01:33:45;;;;;;;10.60;4.82;;;;;;;15.28;95.19;101194.94;4964918;28;20023;-66
2022/10/31 01:36:21;;;;;;;12.07;4.95;;;;;;;15.34;94.82;101196.16;4967266;28;20027;-66
2022/10/31 01:38:50;;;;;;;11.50;4.70;;;;;;;15.34;95.50;101198.06;4973267;28;20045;-66
2022/10/31 01:41:19;;;;;;;12.30;5.60;;;;;;;15.31;96.47;101202.31;4973492;28;20034;-66
2022/10/31 01:44:03;;;;;;;11.48;5.18;;;;;;;15.35;96.54;101211.28;4974296;28;20471;-65
2022/10/31 01:46:38;;;;;;;15.68;5.70;;;;;;;15.37;96.89;101213.59;4967324;28;20046;-66
2022/10/31 01:49:12;;;;;;;10.27;5.13;;;;;;;15.33;96.90;101208.16;4974174;28;20492;-66
2022/10/31 01:51:45;;;;;;;11.38;5.78;;;;;;;15.31;96.73;101209.69;4966947;28;20082;-65
2022/10/31 01:54:14;;;;;;;16.27;5.40;;;;;;;15.36;96.77;101214.78;4972463;28;20752;-65
2022/10/31 01:56:45;;;;;;;10.75;4.70;;;;;;;15.31;96.86;101223.25;4973941;28;20039;-65
2022/10/31 01:59:14;;;;;;;11.27;5.07;;;;;;;15.20;96.89;101217.72;4973766;28;20546;-65
2022/10/31 02:01:40;;;;;;;10.68;5.43;;;;;;;15.15;97.43;101214.56;4971311;28;20069;-66
2022/10/31 02:04:07;;;;;;;8.20;4.68;;;;;;;15.20;97.33;101220.44;4968828;28;20077;-66
2022/10/31 02:06:43;;;;;;;7.55;4.05;;;;;;;15.22;97.20;101233.63;4961090;28;20043;-65
2022/10/31 02:09:13;;;;;;;12.63;5.50;;;;;;;15.13;96.97;101228.50;4954334;28;20072;-66
2022/10/31 02:11:39;;;;;;;14.57;5.53;;;;;;;15.16;96.98;101235.09;4965000;28;20043;-66
2022/10/31 02:14:04;;;;;;;10.00;4.55;;;;;;;15.16;97.14;101237.81;4971678;28;20094;-66
2022/10/31 02:16:30;;;;;;;11.50;4.75;;;;;;;15.05;97.34;101226.06;4972081;28;20207;-66
2022/10/31 02:18:56;;;;;;;12.93;6.03;;;;;;;15.11;97.47;101230.00;4973380;28;20486;-66
2022/10/31 02:21:42;;;;;;;9.32;4.80;;;;;;;15.10;97.24;101239.28;4967587;28;20035;-66
2022/10/31 02:24:23;;;;;;;11.23;4.93;;;;;;;15.09;96.86;101235.03;4970683;28;20069;-66
2022/10/31 02:27:01;;;;;;;11.93;5.18;;;;;;;15.06;97.04;101243.91;4971897;28;20070;-66
2022/10/31 02:29:31;;;;;;;11.75;5.18;;;;;;;15.00;97.43;101234.53;4972230;28;20050;-65
2022/10/31 02:32:14;;;;;;;12.70;5.00;;;;;;;15.00;97.43;101242.69;4971633;28;20031;-66
2022/10/31 02:34:57;;;;;;;8.38;4.53;;;;;;;15.01;97.21;101241.53;4969175;28;20122;-65
2022/10/31 02:37:35;;;;;;;14.20;4.80;;;;;;;14.97;96.96;101252.34;4973111;28;20038;-66
2022/10/31 02:40:31;;;;;;;10.57;5.70;;;;;;;14.96;97.01;101236.44;4987729;28;20459;-65
2022/10/31 02:43:26;;;;;;;15.48;5.75;;;;;;;14.98;97.08;101248.44;4952880;29;20032;-66
2022/10/31 02:46:05;;;;;;;10.05;5.47;;;;;;;14.97;96.61;101256.97;4964304;28;20035;-66
2022/10/31 02:48:37;;;;;;;10.82;5.13;;;;;;;15.02;96.99;101264.78;4968840;28;20031;-66
2022/10/31 02:51:04;;;;;;;10.88;5.90;;;;;;;15.06;96.60;101262.91;4953480;28;20068;-66
2022/10/31 02:53:34;;;;;;;13.98;7.00;;;;;;;15.03;96.84;101255.50;4952305;28;20023;-65
2022/10/31 02:56:12;;;;;;;12.68;5.82;;;;;;;15.03;97.67;101264.41;4951527;28;20594;-65
2022/10/31 02:58:43;;;;;;;12.57;6.38;;;;;;;15.03;97.72;101263.63;4952695;29;20039;-66
2022/10/31 03:01:40;;;;;;;14.55;6.15;;;;;;;15.12;97.75;101264.13;4952343;29;20050;-66
2022/10/31 03:04:28;;;;;;;17.27;6.35;;;;;;;15.18;98.16;101262.63;4958982;28;20080;-66
2022/10/31 03:07:17;;;;;;;14.77;6.75;;;;;;;15.25;98.00;101265.44;4964363;28;20063;-66
2022/10/31 03:10:01;;;;;;;12.20;6.40;;;;;;;15.35;98.14;101262.84;4970804;28;20038;-66
2022/10/31 03:12:37;;;;;;;14.18;6.10;;;;;;;15.42;98.10;101264.88;4971632;28;20045;-65
2022/10/31 03:15:21;;;;;;;12.80;6.25;;;;;;;15.45;97.96;101266.09;4971659;28;20462;-66
2022/10/31 03:17:56;;;;;;;14.05;5.80;;;;;;;15.49;97.68;101272.31;4970306;28;20034;-66
2022/10/31 03:20:41;;;;;;;15.80;7.00;;;;;;;15.48;97.42;101276.97;4966851;28;20039;-66
2022/10/31 03:23:12;;;;;;;13.20;6.07;;;;;;;15.49;97.47;101277.75;4948588;28;20110;-66
2022/10/31 03:25:39;;;;;;;15.43;7.20;;;;;;;15.41;97.54;101276.09;4965108;28;20031;-66
2022/10/31 03:28:09;;;;;;;16.83;6.38;;;;;;;15.30;97.96;101279.47;4973266;28;20046;-66
2022/10/31 03:30:38;;;;;;;14.15;6.47;;;;;;;15.29;97.89;101283.31;4972133;28;20118;-65
2022/10/31 03:33:09;;;;;;;18.27;7.05;;;;;;;15.25;98.36;101281.75;4974021;28;20023;-66
2022/10/31 03:35:41;;;;;;;17.70;6.78;;;;;;;15.25;98.04;101295.31;4968813;28;20039;-65
2022/10/31 03:38:08;;;;;;;18.20;6.85;;;;;;;15.17;98.29;101293.66;4971321;28;20042;-66
2022/10/31 03:40:37;;;;;;;15.88;6.78;;;;;;;15.20;98.48;101295.63;4970782;28;20081;-65
2022/10/31 03:43:13;;;;;;;14.65;6.55;;;;;;;15.16;98.52;101289.38;4967556;28;20113;-66
2022/10/31 03:45:46;;;;;;;18.63;7.05;;;;;;;15.12;98.32;101296.69;4968634;28;20093;-66
2022/10/31 03:48:14;;;;;;;21.10;6.00;;;;;;;15.13;98.67;101298.25;4972218;28;20113;-66
2022/10/31 03:51:04;;;;;;;15.68;6.25;;;;;;;15.05;98.02;101308.25;4970784;28;20423;-66
2022/10/31 03:53:36;;;;;;;16.58;7.00;;;;;;;15.07;98.21;101310.56;4965516;28;20053;-66
2022/10/31 03:56:13;;;;;;;20.52;7.32;;;;;;;15.07;98.40;101314.09;4954185;28;20578;-66
2022/10/31 03:58:53;;;;;;;19.58;6.95;;;;;;;15.11;98.08;101319.53;4972368;28;20864;-66
2022/10/31 04:01:21;;;;;;;17.08;6.47;;;;;;;15.08;98.05;101321.06;4970026;28;20031;-66
2022/10/31 04:03:48;;;;;;;16.02;6.68;;;;;;;15.06;97.55;101326.06;4970793;28;20027;-66
2022/10/31 04:06:18;;;;;;;16.45;6.47;;;;;;;15.04;97.51;101331.06;4970994;28;20073;-66
2022/10/31 04:09:01;;;;;;;11.95;5.85;;;;;;;15.03;97.59;101334.16;4970768;28;20047;-66
2022/10/31 04:11:32;;;;;;;14.00;5.65;;;;;;;14.96;97.79;101340.25;4961311;28;20035;-66
2022/10/31 04:14:26;;;;;;;15.23;6.53;;;;;;;14.94;98.00;101339.84;4965759;28;20046;-66
2022/10/31 04:16:53;;;;;;;16.15;6.22;;;;;;;14.95;97.90;101343.34;4970955;28;20035;-66
2022/10/31 04:19:24;;;;;;;13.45;6.15;;;;;;;14.91;97.94;101347.94;4970333;28;20436;-66
2022/10/31 04:21:50;;;;;;;13.95;6.07;;;;;;;14.90;97.63;101349.91;4951205;28;20035;-65
2022/10/31 04:24:15;;;;;;;15.55;6.25;;;;;;;14.94;98.12;101345.28;4951650;28;20477;-66
2022/10/31 04:26:41;;;;;;;11.27;5.90;;;;;;;14.97;98.00;101343.78;4951659;28;20488;-65
2022/10/31 04:29:06;;;;;;;14.98;6.32;;;;;;;14.98;97.83;101340.69;4961972;28;20115;-66
2022/10/31 04:31:32;;;;;;;16.27;6.82;;;;;;;15.06;97.61;101342.34;4970002;28;20042;-65
2022/10/31 04:33:57;;;;;;;17.17;7.10;;;;;;;15.09;97.74;101351.69;4963764;28;20104;-65
2022/10/31 04:36:23;;;;;;;15.18;7.35;;;;;;;15.06;97.87;101353.19;4953400;28;20090;-66
2022/10/31 04:38:48;;;;;;;14.05;7.05;;;;;;;15.06;97.82;101349.72;4975433;28;20421;-66
2022/10/31 04:41:31;;;;;;;14.80;6.50;;;;;;;15.06;98.23;101347.00;4967757;28;20455;-65
2022/10/31 04:44:07;;;;;;;15.80;6.55;;;;;;;15.09;98.06;101343.56;4954894;28;20027;-66
2022/10/31 04:46:32;;;;;;;11.13;6.03;;;;;;;15.07;97.95;101351.28;4974767;28;20046;-66
2022/10/31 04:48:58;;;;;;;16.25;6.60;;;;;;;14.98;98.20;101342.63;4967306;28;20077;-66
2022/10/31 04:51:24;;;;;;;17.20;6.95;;;;;;;14.92;98.75;101344.88;4972263;28;20034;-65
2022/10/31 04:53:50;;;;;;;14.00;6.50;;;;;;;14.99;98.84;101349.59;4957473;28;20119;-66
2022/10/31 04:56:27;;;;;;;15.77;6.63;;;;;;;14.97;98.58;101338.34;4958344;28;20498;-66
2022/10/31 04:58:58;;;;;;;15.38;6.18;;;;;;;15.01;99.01;101350.81;4954471;28;20039;-66
2022/10/31 05:01:27;;;;;;;20.00;6.40;;;;;;;15.07;98.64;101353.97;4970249;28;20030;-66
2022/10/31 05:03:53;;;;;;;13.30;6.45;;;;;;;14.98;98.88;101354.25;4973145;28;20116;-66
2022/10/31 05:06:19;;;;;;;13.02;6.13;;;;;;;14.99;99.56;101352.31;4969933;28;20488;-65
2022/10/31 05:08:45;;;;;;;13.25;6.75;;;;;;;15.07;99.33;101353.97;4939555;28;20093;-65
2022/10/31 05:11:11;;;;;;;15.38;6.00;;;;;;;15.09;99.17;101351.69;4972955;28;20026;-65
2022/10/31 05:13:37;;;;;;;17.20;6.53;;;;;;;15.09;99.32;101344.34;4973141;28;20392;-65
2022/10/31 05:16:11;;;;;;;15.00;5.68;;;;;;;15.13;99.71;101350.59;4974091;28;20066;-65
2022/10/31 05:18:49;;;;;;;15.57;6.15;;;;;;;15.16;99.47;101347.13;4974254;28;20377;-65
2022/10/31 05:21:37;;;;;;;10.52;5.95;;;;;;;15.24;99.92;101364.28;4974466;28;20125;-65
2022/10/31 05:24:03;;;;;;;17.73;6.60;;;;;;;15.28;99.66;101359.69;4974188;28;20121;-65
2022/10/31 05:26:30;;;;;;;18.40;7.10;;;;;;;15.36;99.56;101367.56;4968635;28;20030;-65
2022/10/31 05:28:55;;;;;;;14.05;6.30;;;;;;;15.39;99.65;101366.81;4937874;29;20243;-65
2022/10/31 05:31:22;;;;;;;15.52;7.43;;;;;;;15.44;100.00;101368.47;4966908;28;20031;-65
2022/10/31 05:33:49;;;;;;;18.90;7.40;;;;;;;15.48;100.00;101363.84;4957282;28;20019;-65
2022/10/31 05:36:35;;;;;;;17.05;7.13;;;;;;;15.56;100.00;101370.94;4927589;28;20051;-65
2022/10/31 05:39:10;;;;;;;18.88;6.75;;;;;;;15.61;99.42;101367.88;4965483;28;20050;-65
2022/10/31 05:41:41;;;;;;;14.35;7.00;;;;;;;15.52;100.00;101374.75;4971625;28;20459;-65
2022/10/31 05:44:19;;;;;;;15.65;7.60;;;;;;;15.58;100.00;101365.88;4972514;28;20039;-65
2022/10/31 05:47:03;;;;;;;22.67;7.63;;;;;;;15.61;100.00;101359.72;4973354;28;20138;-65
2022/10/31 05:49:47;;;;;;;18.63;7.95;;;;;;;15.64;100.00;101361.69;4974786;28;20052;-65
2022/10/31 05:52:38;;;;;;;20.88;7.45;;;;;;;15.70;100.00;101362.16;4973962;28;20042;-65
2022/10/31 05:55:14;;;;;;;16.38;7.55;;;;;;;15.72;100.00;101357.13;4967274;28;20038;-65
2022/10/31 05:57:53;;;;;;;22.70;8.40;;;;;;;15.70;100.00;101352.06;4954962;28;20453;-65
2022/10/31 06:00:18;;;;;;;17.88;7.80;;;;;;;15.70;100.00;101348.59;4971076;28;20053;-65
2022/10/31 06:02:47;;;;;;;17.30;6.95;;;;;;;15.67;100.00;101358.25;4967488;28;20050;-65
2022/10/31 06:05:21;;;;;;;21.38;7.88;;;;;;;15.70;100.00;101364.88;4979665;28;20058;-65
2022/10/31 06:07:46;;;;;;;19.63;8.55;;;;;;;15.72;100.00;101365.25;4965175;28;20069;-65
2022/10/31 06:10:12;;;;;;;21.45;7.55;;;;;;;15.77;100.00;101367.66;4968302;28;20030;-65
2022/10/31 06:12:37;;;;;;;19.23;7.15;;;;;;;15.73;100.00;101364.91;4966503;28;20031;-66
2022/10/31 06:15:29;;;;;;;25.60;8.65;;;;;;;15.75;100.00;101364.53;4958251;28;20078;-66
2022/10/31 06:18:05;;;;;;;19.42;7.60;;;;;;;15.74;100.00;101371.91;4966711;28;20039;-66
2022/10/31 06:20:42;;;;;;;18.80;8.13;;;;;;;15.81;100.00;101373.91;4953629;28;20515;-66
2022/10/31 06:23:08;;;;;;;19.52;7.80;;;;;;;15.80;100.00;101372.34;4960746;28;20070;-66
2022/10/31 06:25:33;;;;;;;18.75;7.60;;;;;;;15.82;100.00;101373.53;4972541;28;20026;-66
2022/10/31 06:27:59;;;;;;;21.98;8.55;;;;;;;15.82;100.00;101376.25;4968081;28;20102;-66
2022/10/31 06:30:33;;;;;;;15.90;7.13;;;;;;;15.84;100.00;101375.88;4952812;28;20145;-66
2022/10/31 06:33:04;;;;;;;26.67;8.68;;;;;;;15.84;100.00;101381.31;4969646;28;20513;-66
2022/10/31 06:35:30;;;;;;;21.52;8.25;;;;;;;15.89;100.00;101383.72;4961415;28;20043;-66
2022/10/31 06:37:56;;;;;;;21.17;7.25;;;;;;;15.90;100.00;101394.19;4970993;28;20089;-66
2022/10/31 06:40:47;;;;;;;23.80;7.88;;;;;;;15.82;100.00;101400.69;4970057;28;20045;-66
2022/10/31 06:43:22;;;;;;;19.83;7.88;;;;;;;15.64;100.00;101405.13;4957242;28;20027;-66
2022/10/31 06:45:48;;;;;;;18.00;7.47;;;;;;;15.68;100.00;101407.91;4956026;28;20407;-66
2022/10/31 06:48:27;;;;;;;20.42;7.45;;;;;;;15.73;100.00;101404.88;4971262;28;20155;-66
2022/10/31 06:51:24;;;;;;;19.40;7.28;;;;;;;15.77;100.00;101402.97;4951276;28;20105;-66
2022/10/31 06:53:50;;;;;;;20.00;7.15;;;;;;;15.82;100.00;101411.56;4971359;28;20034;-66
2022/10/31 06:56:16;;;;;;;22.10;7.25;;;;;;;15.85;100.00;101418.97;4971450;28;20403;-66
2022/10/31 06:58:48;;;;;;;20.08;8.20;;;;;;;15.91;100.00;101405.84;4964535;28;20046;-66
2022/10/31 07:01:16;;;;;;;22.23;8.70;;;;;;;15.95;100.00;101414.81;4961629;28;20125;-66
2022/10/31 07:03:42;;;;;;;23.20;7.40;;;;;;;16.02;100.00;101412.19;4983280;28;20122;-66
2022/10/31 07:06:07;;;;;;;25.20;7.22;;;;;;;16.01;100.00;101424.97;4962738;28;20410;-66
2022/10/31 07:08:33;;;;;;;22.42;8.32;;;;;;;15.93;100.00;101433.44;4971697;28;20508;-66
2022/10/31 07:10:58;;;;;;;26.63;9.07;;;;;;;15.90;100.00;101439.59;4969843;28;20038;-66
2022/10/31 07:13:25;;;;;;;20.45;7.82;;;;;;;15.95;100.00;101437.31;4971501;28;20035;-66
2022/10/31 07:16:01;;;;;;;19.67;8.02;;;;;;;16.03;100.00;101433.53;4970470;28;20118;-66
2022/10/31 07:18:27;;;;;;;19.20;7.35;;;;;;;16.09;100.00;101426.63;4955761;28;20035;-66
2022/10/31 07:20:53;;;;;;;19.02;8.23;;;;;;;16.01;100.00;101444.00;4982230;28;20335;-66
2022/10/31 07:23:19;;;;;;;25.10;8.60;;;;;;;16.01;100.00;101446.72;4969639;28;20031;-66
2022/10/31 07:25:58;;;;;;;20.63;8.48;;;;;;;15.96;100.00;101446.25;4969622;28;20110;-66
2022/10/31 07:28:30;;;;;;;24.58;8.27;;;;;;;15.95;100.00;101448.19;4981044;28;20072;-66
2022/10/31 07:30:57;;;;;;;21.85;7.40;;;;;;;16.05;100.00;101444.81;4964279;28;20027;-66
2022/10/31 07:33:23;;;;;;;19.70;8.02;;;;;;;16.14;100.00;101444.53;4965614;28;20023;-66
2022/10/31 07:36:15;;;;;;;24.40;8.00;;;;;;;16.15;100.00;101449.59;4947528;28;20043;-66
2022/10/31 07:38:43;;;;;;;24.30;7.72;;;;;;;16.09;100.00;101451.06;4969961;28;20043;-66
2022/10/31 07:41:09;;;;;;;20.20;7.53;;;;;;;16.14;100.00;101447.25;4969750;28;20033;-66
2022/10/31 07:43:39;;;;;;;25.17;8.73;;;;;;;16.09;100.00;101442.91;4963423;28;20023;-66
2022/10/31 07:46:25;;;;;;;22.08;7.97;;;;;;;16.08;100.00;101457.69;4959437;28;20054;-66
2022/10/31 07:49:09;;;;;;;24.25;7.90;;;;;;;16.19;100.00;101446.91;4952900;28;20054;-66
2022/10/31 07:51:52;;;;;;;29.58;8.20;;;;;;;16.33;100.00;101454.41;4963099;28;20130;-66
2022/10/31 07:54:36;;;;;;;23.45;7.65;;;;;;;16.32;100.00;101455.59;4971504;28;20044;-66
2022/10/31 07:57:02;;;;;;;27.63;8.32;;;;;;;16.34;100.00;101466.88;4969995;28;20126;-66
2022/10/31 07:59:27;;;;;;;20.85;7.00;;;;;;;16.39;100.00;101466.53;4967159;28;20034;-66
2022/10/31 08:01:54;;;;;;;14.85;6.50;;;;;;;16.44;100.00;101475.13;4960504;28;20058;-66
2022/10/31 08:04:31;;;;;;;22.67;6.28;;;;;;;16.47;100.00;101463.50;4968135;28;20631;-66
2022/10/31 08:07:16;;;;;;;14.90;5.35;;;;;;;16.51;100.00;101471.72;4971177;28;20411;-66
2022/10/31 08:09:47;;;;;;;23.38;6.35;;;;;;;16.55;100.00;101469.81;4969277;28;20027;-66
2022/10/31 08:12:20;;;;;;;19.27;5.63;;;;;;;16.57;100.00;101468.28;4973903;28;20031;-66
2022/10/31 08:14:45;;;;;;;19.08;6.40;;;;;;;16.58;100.00;101469.84;4972465;28;20034;-66
2022/10/31 08:17:13;;;;;;;22.02;5.75;;;;;;;16.60;100.00;101469.47;4959241;28;20436;-66
2022/10/31 08:19:58;;;;;;;16.13;4.78;;;;;;;16.43;100.00;101470.06;4975592;28;20047;-66
2022/10/31 08:22:29;;;;;;;16.92;4.85;;;;;;;16.40;100.00;101468.84;4974339;28;20030;-66
2022/10/31 08:24:57;;;;;;;22.35;5.50;;;;;;;16.51;100.00;101460.84;4960990;28;20042;-66
2022/10/31 08:27:23;;;;;;;17.33;4.95;;;;;;;16.57;100.00;101464.78;4961514;28;20061;-66
2022/10/31 08:29:48;;;;;;;15.57;4.22;;;;;;;16.59;100.00;101470.63;4974018;28;20113;-66
2022/10/31 08:32:14;;;;;;;14.50;4.90;;;;;;;16.57;100.00;101481.88;4974039;28;20030;-66
2022/10/31 08:34:58;;;;;;;18.23;4.78;;;;;;;16.56;100.00;101474.09;4960788;28;20042;-66
2022/10/31 08:37:42;;;;;;;17.50;5.18;;;;;;;16.60;100.00;101472.19;4964833;28;20153;-66
2022/10/31 08:40:09;;;;;;;12.73;4.60;;;;;;;16.61;100.00;101479.97;4957567;28;20031;-66
2022/10/31 08:42:34;;;;;;;13.27;4.72;;;;;;;16.62;100.00;101475.31;4974827;28;20049;-66
2022/10/31 08:45:00;;;;;;;13.70;4.53;;;;;;;16.65;100.00;101480.00;4973323;28;20399;-66
2022/10/31 08:47:27;;;;;;;10.88;4.47;;;;;;;16.69;100.00;101478.09;4973452;28;20377;-66
2022/10/31 08:49:53;;;;;;;15.05;4.63;;;;;;;16.68;100.00;101484.69;4973751;28;20035;-66
2022/10/31 08:52:22;;;;;;;16.55;4.47;;;;;;;16.71;100.00;101478.50;4974122;28;20419;-66
2022/10/31 08:54:48;;;;;;;17.52;4.68;;;;;;;16.72;100.00;101480.88;4980174;28;20041;-66
2022/10/31 08:57:32;;;;;;;13.88;4.57;;;;;;;16.72;100.00;101474.63;4957094;28;20126;-66
2022/10/31 08:59:58;;;;;;;19.30;5.13;;;;;;;16.71;100.00;101481.22;4968817;28;20081;-65
2022/10/31 09:02:28;;;;;;;15.57;4.53;;;;;;;16.67;100.00;101483.13;4968551;28;20034;-65
2022/10/31 09:04:58;;;;;;;12.82;4.43;;;;;;;16.66;100.00;101476.13;4958036;28;20042;-65
2022/10/31 09:07:23;;;;;;;17.60;5.18;;;;;;;16.65;100.00;101472.63;4968211;28;20039;-66
2022/10/31 09:09:49;;;;;;;12.05;4.30;;;;;;;16.56;100.00;101460.50;4974637;28;20030;-66
2022/10/31 09:12:15;;;;;;;12.70;4.25;;;;;;;16.67;100.00;101458.63;4973000;28;20034;-65
2022/10/31 09:14:57;;;;;;;12.70;4.22;;;;;;;16.78;100.00;101456.81;4961086;28;20031;-66
2022/10/31 09:17:31;;;;;;;11.35;4.40;;;;;;;16.86;100.00;101464.63;4965053;28;20069;-66
2022/10/31 09:20:15;;;;;;;13.57;4.22;;;;;;;16.94;100.00;101460.03;4977898;28;20089;-65
2022/10/31 09:22:40;;;;;;;14.18;4.32;;;;;;;17.02;100.00;101462.44;4970489;28;20531;-66
2022/10/31 09:25:07;;;;;;;20.25;4.70;;;;;;;17.11;100.00;101462.13;4950971;28;20038;-66
2022/10/31 09:27:32;;;;;;;13.63;4.68;;;;;;;17.14;100.00;101459.41;4967849;28;20068;-66
2022/10/31 09:29:58;;;;;;;13.90;4.47;;;;;;;17.14;100.00;101462.13;4955764;28;20084;-66
2022/10/31 09:32:23;;;;;;;14.60;4.20;;;;;;;17.12;100.00;101456.28;4965030;28;20027;-66
2022/10/31 09:34:49;;;;;;;11.45;3.95;;;;;;;17.18;100.00;101453.97;4967637;28;20037;-65
2022/10/31 09:37:18;;;;;;;13.20;3.85;;;;;;;17.11;100.00;101453.94;4963874;28;20054;-66
2022/10/31 09:39:44;;;;;;;11.27;3.70;;;;;;;17.17;100.00;101458.63;4961968;28;20412;-67
2022/10/31 09:42:54;;;;;;;11.65;3.80;;;;;;;17.24;100.00;101455.19;4965395;28;20046;-66
2022/10/31 09:45:29;;;;;;;14.32;4.20;;;;;;;17.22;100.00;101457.50;4983854;28;20109;-66
2022/10/31 09:48:17;;;;;;;11.57;3.90;;;;;;;17.17;99.90;101463.28;4967057;28;20411;-66
2022/10/31 09:51:07;;;;;;;11.75;3.92;;;;;;;17.20;100.00;101462.56;4965395;28;20096;-66
2022/10/31 09:53:47;;;;;;;13.23;3.83;;;;;;;17.27;99.97;101462.59;4971501;28;20034;-66
2022/10/31 09:56:20;;;;;;;15.02;3.85;;;;;;;17.33;100.00;101457.56;4965707;28;20047;-66
2022/10/31 09:58:58;;;;;;;11.80;3.85;;;;;;;17.41;99.90;101478.22;4968574;28;20109;-66
2022/10/31 10:01:51;;;;;;;12.35;4.43;;;;;;;17.40;99.35;101476.69;4993376;28;20027;-66
2022/10/31 10:04:35;;;;;;;11.45;3.38;;;;;;;17.44;99.64;101483.69;4962436;28;20043;-66
2022/10/31 10:07:32;;;;;;;11.60;4.03;;;;;;;17.44;98.67;101482.94;4956515;28;20069;-66
2022/10/31 10:10:35;;;;;;;11.48;4.53;;;;;;;17.46;98.60;101486.06;4969961;28;20092;-66
2022/10/31 10:14:04;;;;;;;13.38;4.03;;;;;;;17.26;97.56;101482.03;4965806;28;20035;-66
2022/10/31 10:16:50;;;;;;;14.85;4.95;;;;;;;17.05;96.90;101486.16;4967770;28;20063;-66
2022/10/31 10:19:35;;;;;;;15.50;5.25;;;;;;;17.21;97.64;101496.00;4970537;28;20286;-66
2022/10/31 10:22:21;;;;;;;13.57;4.90;;;;;;;17.36;96.18;101484.06;4970785;28;20031;-66
2022/10/31 10:25:14;;;;;;;15.57;5.80;;;;;;;17.40;96.11;101484.84;4969508;28;20126;-66
2022/10/31 10:27:58;;;;;;;14.40;6.00;;;;;;;17.36;95.61;101494.94;4967697;28;20479;-65
2022/10/31 10:30:35;;;;;;;17.73;5.20;;;;;;;17.39;94.98;101481.34;4968775;28;20400;-66
2022/10/31 10:33:12;;;;;;;17.45;5.88;;;;;;;17.07;94.66;101480.34;4990385;23;20050;-71
2022/10/31 10:35:43;;;;;;;12.48;5.22;;;;;;;17.30;95.15;101480.13;4993375;28;20038;-70
2022/10/31 10:38:37;;;;;;;15.98;4.95;;;;;;;17.33;95.13;101476.63;4989725;28;20046;-70
2022/10/31 10:41:11;;;;;;;15.13;5.10;;;;;;;17.47;94.47;101469.34;4979387;28;20100;-70
2022/10/31 10:43:37;;;;;;;9.70;3.97;;;;;;;17.47;94.33;101471.25;4962751;28;20509;-70
2022/10/31 10:49:17;;;;;;;13.65;5.13;;;;;;;17.39;94.56;101465.00;4966830;28;20054;-70
2022/10/31 10:52:13;;;;;;;19.27;5.95;;;;;;;17.53;94.52;101456.16;4966571;28;20047;-71
2022/10/31 10:55:09;;;;;;;23.92;5.57;;;;;;;17.68;94.29;101455.84;4958689;28;20043;-70
2022/10/31 10:58:05;;;;;;;13.65;5.13;;;;;;;17.76;94.09;101446.53;4970447;28;20478;-71
2022/10/31 11:00:35;;;;;;;12.93;4.45;;;;;;;17.82;93.94;101458.63;4968360;28;20426;-69
2022/10/31 11:03:01;;;;;;;16.23;6.10;;;;;;;17.88;93.51;101443.47;4973087;28;20125;-69
2022/10/31 11:05:50;;;;;;;15.95;4.95;;;;;;;17.87;93.06;101455.53;4971317;28;20029;-69
2022/10/31 11:08:35;;;;;;;19.65;5.53;;;;;;;17.93;92.94;101456.72;4972909;28;20046;-68
2022/10/31 11:11:04;;;;;;;17.02;5.05;;;;;;;17.78;91.95;101446.16;4971571;28;20118;-70
2022/10/31 11:13:32;;;;;;;11.63;4.28;;;;;;;17.79;91.81;101459.38;4971415;28;20039;-69
2022/10/31 11:16:08;;;;;;;13.77;5.18;;;;;;;17.73;91.61;101457.44;4968786;28;20125;-69
2022/10/31 11:18:41;;;;;;;13.32;4.65;;;;;;;17.74;90.74;101459.75;4973541;28;20450;-69
2022/10/31 11:21:21;;;;;;;10.77;4.15;;;;;;;17.82;91.19;101447.72;4971421;28;20043;-69
2022/10/31 11:23:46;;;;;;;15.95;4.82;;;;;;;17.89;91.25;101455.91;4981305;28;20070;-68
2022/10/31 11:26:21;;;;;;;12.57;4.88;;;;;;;17.97;90.93;101449.34;4954903;28;20018;-68
2022/10/31 11:28:59;;;;;;;11.80;4.10;;;;;;;18.02;91.25;101448.19;4973449;28;20054;-69
2022/10/31 11:31:26;;;;;;;10.43;4.07;;;;;;;18.08;89.93;101437.69;4967748;28;20123;-69
2022/10/31 11:34:01;;;;;;;15.77;4.22;;;;;;;18.08;89.30;101435.72;4970693;28;20027;-70
2022/10/31 11:36:31;;;;;;;14.40;4.63;;;;;;;18.22;88.98;101424.06;4975101;28;20048;-69
2022/10/31 11:38:59;;;;;;;11.90;4.45;;;;;;;18.18;88.63;101420.53;4975065;28;20054;-69
2022/10/31 11:41:27;;;;;;;17.42;5.00;;;;;;;18.26;89.11;101427.56;4985019;28;20037;-69
2022/10/31 11:43:59;;;;;;;11.63;4.35;;;;;;;18.42;89.12;101431.53;4968543;28;20042;-70